To NAV CANADA Home Page Login to a new session Search on AWWS site Feedback and Comments Disclaimer Vers la page française équivalente Tips FAQ What's new on the site To the Forecasts and Observations / NOTAM section To "File a Flight Plan" website Publications and other links Update of the User's profile FIC Telephone Numbers My Weather Data Folder Route Weather Data Regional Weather Data Local Weather Data To the Forecasts and Observations / NOTAM section
Request Generated 04/23/2014 at 14:05:10 UTC . Weather information available at that time is displayed.

METAR/TAF

FLIN FLON/MB    

METAR CYFO 231400Z 07005KT 15SM BKN230 05/M00 A3000 RMK CI2 SLP173=
METAR CYFO 231300Z 07007KT 15SM BKN230 04/M00 A3000 RMK CS2 AC TR SLP172=
METAR CYFO 231200Z 07006KT 15SM FEW120 SCT230 03/M01 A3001 RMK AC1CI1 SLP174=

CYFO - No TAF is issued for this station

Your time UTC time
Weather data provided by Environment Canada and NAV CANADA